.
WxDataArchive / Data Records for 2014-08-11
2014-08-10 August 2014 2014-08-12

Data Records for Monday, 11 August 2014

Time	Temp	Chill	HIndex	Humid	Dewpt	 Wind 	HiWind	WindDir	Rain 	Barom
-----	----	-----	------	-----	-----	------	------	-------	-----	-----
00:00	73.9	73.9	73.9	81	67.7	1	5	68	0.00	29.926 
00:05	73.9	73.9	73.9	81	67.7	1	5	68	0.00	29.926 
00:10	73.7	73.7	73.7	81	67.5	2	5	68	0.00	29.926 
00:15	73.5	73.5	73.5	81	67.3	0	3	90	0.00	29.924 
00:20	73.3	73.3	73.3	82	67.5	1	4	90	0.00	29.924 
00:25	73.2	73.2	73.2	82	67.4	0	3	90	0.00	29.924 
00:30	73.0	73.0	73.0	82	67.2	1	3	90	0.00	29.923 
00:35	72.8	72.8	72.8	82	67.0	0	3	90	0.00	29.923 
00:40	72.7	72.7	72.7	83	67.2	0	3	90	0.00	29.923 
00:45	72.5	72.5	72.5	83	67.0	0	2	90	0.00	29.924 
00:50	72.3	72.3	72.3	83	66.8	0	2	90	0.00	29.924 
00:55	72.1	72.1	72.1	83	66.6	0	1	90	0.00	29.924 
01:00	72.1	72.1	72.1	84	67.0	0	2	90	0.00	29.924 
01:05	72.0	72.0	72.0	84	66.9	0	2	90	0.00	29.924 
01:10	71.8	71.8	71.8	84	66.7	0	2	90	0.00	29.924 
01:15	71.6	71.6	71.6	84	66.5	0	1	90	0.00	29.915 
01:20	71.5	71.5	71.5	85	66.7	0	1	90	0.00	29.915 
01:25	71.3	71.3	71.3	85	66.5	0	2	90	0.00	29.915 
01:30	71.3	71.3	71.3	85	66.5	0	2	90	0.00	29.911 
01:35	71.1	71.1	71.1	86	66.7	0	1	90	0.00	29.911 
01:40	71.1	71.1	71.1	86	66.7	0	1	90	0.00	29.911 
01:45	70.9	70.9	70.9	86	66.5	0	1	90	0.00	29.906 
01:50	70.9	70.9	70.9	86	66.5	0	3	90	0.00	29.906 
01:55	70.8	70.8	70.8	86	66.4	0	1	90	0.00	29.906 
02:00	70.8	70.8	70.8	86	66.4	0	1	90	0.00	29.908 
02:05	70.8	70.8	70.8	87	66.7	0	1	90	0.00	29.908 
02:10	70.8	70.8	70.8	87	66.7	0	1	90	0.00	29.908 
02:15	70.6	70.6	70.6	87	66.5	0	1	90	0.00	29.902 
02:20	70.6	70.6	70.6	87	66.5	0	2	90	0.00	29.902 
02:25	70.4	70.4	70.4	87	66.3	0	3	90	0.00	29.902 
02:30	70.3	70.3	70.3	87	66.2	1	2	90	0.00	29.894 
02:35	70.3	70.3	70.3	88	66.6	0	2	90	0.00	29.894 
02:40	70.3	70.3	70.3	88	66.6	0	1	90	0.00	29.894 
02:45	70.1	70.1	70.1	88	66.4	0	1	90	0.00	29.884 
02:50	70.1	70.1	70.1	88	66.4	0	2	90	0.00	29.884 
02:55	70.1	70.1	70.1	88	66.4	0	1	90	0.00	29.884 
03:00	70.1	70.1	70.1	88	66.4	0	2	90	0.00	29.879 
03:05	69.9	69.9	69.9	88	66.2	0	2	90	0.00	29.879 
03:10	69.9	69.9	69.9	88	66.2	0	1	90	0.00	29.879 
03:15	69.8	69.8	69.8	88	66.1	0	1	90	0.00	29.877 
03:20	69.8	69.8	69.8	89	66.4	0	2	90	0.00	29.877 
03:25	69.8	69.8	69.8	89	66.4	0	3	90	0.00	29.877 
03:30	69.6	69.6	69.6	89	66.2	0	2	90	0.00	29.871 
03:35	69.6	69.6	69.6	89	66.2	0	1	90	0.00	29.871 
03:40	69.6	69.6	69.6	89	66.2	0	1	90	0.00	29.871 
03:45	69.6	69.6	69.6	89	66.2	0	1	90	0.00	29.866 
03:50	69.8	69.8	69.8	89	66.4	0	1	90	0.00	29.866 
03:55	69.8	69.8	69.8	89	66.4	0	1	90	0.00	29.866 
04:00	69.8	69.8	69.8	90	66.7	0	1	90	0.00	29.863 
04:05	69.8	69.8	69.8	90	66.7	0	0	---	0.00	29.863 
04:10	69.6	69.6	69.6	90	66.5	0	0	---	0.00	29.863 
04:15	69.6	69.6	69.6	90	66.5	0	0	---	0.00	29.863 
04:20	69.6	69.6	69.6	90	66.5	0	0	---	0.00	29.863 
04:25	69.6	69.6	69.6	90	66.5	0	0	---	0.00	29.863 
04:30	69.6	69.6	69.6	90	66.5	0	0	---	0.00	29.859 
04:35	69.6	69.6	69.6	90	66.5	0	0	---	0.00	29.859 
04:40	69.6	69.6	69.6	90	66.5	0	0	---	0.00	29.859 
04:45	69.6	69.6	69.6	90	66.5	0	0	---	0.00	29.853 
04:50	69.6	69.6	69.6	90	66.5	0	0	---	0.00	29.853 
04:55	69.6	69.6	69.6	90	66.5	0	0	---	0.00	29.853 
05:00	69.4	69.4	69.4	90	66.3	0	0	---	0.00	29.849 
05:05	69.4	69.4	69.4	90	66.3	0	0	---	0.00	29.849 
05:10	69.4	69.4	69.4	90	66.3	0	0	---	0.00	29.849 
05:15	69.3	69.3	69.3	90	66.2	0	1	90	0.00	29.849 
05:20	69.3	69.3	69.3	90	66.2	0	0	---	0.00	29.849 
05:25	69.3	69.3	69.3	90	66.2	0	0	---	0.00	29.849 
05:30	69.1	69.1	69.1	90	66.0	0	0	---	0.00	29.850 
05:35	69.1	69.1	69.1	90	66.0	0	0	---	0.00	29.850 
05:40	69.1	69.1	69.1	90	66.0	0	1	90	0.00	29.850 
05:45	69.1	69.1	69.1	90	66.0	0	1	90	0.00	29.849 
05:50	69.1	69.1	69.1	91	66.4	0	1	90	0.00	29.849 
05:55	69.1	69.1	69.1	91	66.4	0	0	---	0.00	29.849 
06:00	69.1	69.1	69.1	91	66.4	0	1	90	0.00	29.847 
06:05	69.1	69.1	69.1	91	66.4	0	0	---	0.00	29.847 
06:10	69.1	69.1	69.1	91	66.4	0	0	---	0.00	29.847 
06:15	68.9	68.9	68.9	91	66.2	0	0	---	0.00	29.843 
06:20	69.1	69.1	69.1	91	66.4	0	0	---	0.00	29.843 
06:25	69.1	69.1	69.1	91	66.4	0	1	90	0.00	29.843 
06:30	69.1	69.1	69.1	91	66.4	0	1	90	0.00	29.840 
06:35	69.1	69.1	69.1	92	66.7	0	1	90	0.00	29.840 
06:40	69.1	69.1	69.1	92	66.7	0	0	---	0.00	29.840 
06:45	68.9	68.9	68.9	92	66.5	0	0	---	0.00	29.836 
06:50	68.9	68.9	68.9	92	66.5	0	1	90	0.00	29.836 
06:55	68.9	68.9	68.9	92	66.5	0	1	90	0.00	29.836 
07:00	68.9	68.9	68.9	92	66.5	0	1	90	0.00	29.842 
07:05	68.9	68.9	68.9	92	66.5	0	1	90	0.00	29.842 
07:10	68.9	68.9	68.9	92	66.5	0	1	90	0.00	29.842 
07:15	68.9	68.9	68.9	92	66.5	0	1	90	0.00	29.838 
07:20	68.9	68.9	68.9	92	66.5	0	1	90	0.00	29.838 
07:25	68.9	68.9	68.9	92	66.5	0	1	90	0.00	29.838 
07:30	68.9	68.9	68.9	92	66.5	0	0	---	0.00	29.837 
07:35	68.9	68.9	68.9	92	66.5	0	0	---	0.00	29.837 
07:40	69.1	69.1	69.1	92	66.7	0	1	90	0.00	29.837 
07:45	69.1	69.1	69.1	92	66.7	0	0	---	0.00	29.835 
07:50	69.3	69.3	69.3	92	66.9	0	0	---	0.00	29.835 
07:55	69.3	69.3	69.3	92	66.9	0	0	---	0.00	29.835 
08:00	69.3	69.3	69.3	92	66.9	0	0	---	0.00	29.825 
08:05	69.4	69.4	69.4	92	67.0	0	0	---	0.00	29.825 
08:10	69.4	69.4	69.4	92	67.0	0	0	---	0.00	29.825 
08:15	69.6	69.6	69.6	92	67.2	0	0	---	0.00	29.824 
08:20	69.6	69.6	69.6	92	67.2	0	1	90	0.00	29.824 
08:25	69.6	69.6	69.6	92	67.2	0	0	---	0.00	29.824 
08:30	69.6	69.6	69.6	92	67.2	0	1	90	0.00	29.822 
08:35	69.6	69.6	69.6	92	67.2	0	3	90	0.00	29.822 
08:40	69.6	69.6	69.6	92	67.2	0	2	90	0.00	29.822 
08:45	69.6	69.6	69.6	92	67.2	0	1	90	0.00	29.821 
08:50	69.8	69.8	69.8	92	67.4	0	1	90	0.00	29.821 
08:55	69.8	69.8	69.8	92	67.4	0	1	90	0.00	29.821 
09:00	69.9	69.9	69.9	92	67.5	0	1	90	0.00	29.810 
09:05	70.1	70.1	70.1	92	67.7	0	3	90	0.00	29.810 
09:10	70.3	70.3	70.3	92	67.9	0	1	90	0.00	29.810 
09:15	70.4	70.4	70.4	92	68.0	0	1	90	0.00	29.810 
09:20	70.4	70.4	70.4	91	67.6	0	2	90	0.00	29.810 
09:25	70.6	70.6	70.6	91	67.8	1	3	90	0.00	29.810 
09:30	70.8	70.8	70.8	91	68.0	1	2	90	0.00	29.804 
09:35	70.9	70.9	70.9	91	68.1	0	2	90	0.01	29.804 
09:40	70.8	70.8	70.8	91	68.0	0	0	---	0.04	29.804 
09:45	70.8	70.8	70.8	92	68.4	0	0	---	0.01	29.804 
09:50	70.6	70.6	70.6	92	68.2	0	0	---	0.00	29.804 
09:55	70.4	70.4	70.4	92	68.0	0	0	---	0.00	29.804 
10:00	70.4	70.4	70.4	92	68.0	0	0	---	0.00	29.798 
10:05	70.4	70.4	70.4	92	68.0	0	0	---	0.00	29.798 
10:10	70.4	70.4	70.4	92	68.0	0	1	90	0.01	29.798 
10:15	70.4	70.4	70.4	93	68.3	0	2	90	0.05	29.802 
10:20	70.3	70.3	70.3	93	68.2	0	2	90	0.08	29.802 
10:25	70.3	70.3	70.3	93	68.2	0	0	---	0.08	29.802 
10:30	70.3	70.3	70.3	93	68.2	0	1	90	0.03	29.802 
10:35	70.1	70.1	70.1	93	68.0	0	0	---	0.03	29.802 
10:40	70.1	70.1	70.1	93	68.0	0	1	90	0.06	29.802 
10:45	70.1	70.1	70.1	94	68.3	0	1	90	0.07	29.808 
10:50	70.1	70.1	70.1	94	68.3	0	0	---	0.04	29.808 
10:55	69.9	69.9	69.9	94	68.1	0	1	90	0.05	29.808 
11:00	69.9	69.9	69.9	94	68.1	0	2	90	0.03	29.801 
11:05	69.8	69.8	69.8	94	68.0	0	2	90	0.04	29.801 
11:10	69.8	69.8	69.8	94	68.0	0	1	90	0.02	29.801 
11:15	69.8	69.8	69.8	94	68.0	1	5	90	0.01	29.806 
11:20	69.6	69.6	69.6	94	67.8	0	2	90	0.06	29.806 
11:25	69.4	69.4	69.4	94	67.6	1	4	90	0.01	29.806 
11:30	69.4	69.4	69.4	94	67.6	1	3	90	0.00	29.804 
11:35	69.3	69.3	69.3	94	67.5	0	4	90	0.00	29.804 
11:40	69.4	69.4	69.4	95	67.9	0	2	90	0.00	29.804 
11:45	69.3	69.3	69.3	95	67.8	0	4	90	0.00	29.806 
11:50	69.3	69.3	69.3	95	67.8	0	2	90	0.00	29.806 
11:55	69.3	69.3	69.3	95	67.8	0	2	90	0.00	29.806 
12:00	69.1	69.1	69.1	95	67.6	1	3	90	0.00	29.810 
12:05	69.1	69.1	69.1	95	67.6	0	2	90	0.00	29.810 
12:10	68.9	68.9	68.9	95	67.4	1	4	338	0.01	29.810 
12:15	68.9	68.9	68.9	95	67.4	0	2	0	0.00	29.807 
12:20	69.1	69.1	69.1	95	67.6	0	3	0	0.00	29.807 
12:25	69.1	69.1	69.1	95	67.6	0	3	0	0.00	29.807 
12:30	69.1	69.1	69.1	95	67.6	1	4	338	0.00	29.797 
12:35	68.9	68.9	68.9	94	67.1	1	3	315	0.00	29.797 
12:40	68.6	68.6	68.6	94	66.8	1	3	315	0.00	29.797 
12:45	68.4	68.4	68.4	94	66.6	1	3	315	0.06	29.807 
12:50	68.6	68.6	68.6	95	67.1	0	1	315	0.02	29.807 
12:55	68.8	68.8	68.8	95	67.3	0	1	315	0.00	29.807 
13:00	68.9	68.9	68.9	95	67.4	0	2	315	0.01	29.789 
13:05	68.9	68.9	68.9	95	67.4	0	1	315	0.01	29.789 
13:10	69.1	69.1	69.1	95	67.6	0	3	315	0.01	29.789 
13:15	69.1	69.1	69.1	95	67.6	0	3	315	0.00	29.792 
13:20	69.1	69.1	69.1	95	67.6	0	1	45	0.00	29.792 
13:25	69.1	69.1	69.1	95	67.6	0	2	45	0.00	29.792 
13:30	69.3	69.3	69.3	95	67.8	1	5	90	0.00	29.781 
13:35	69.3	69.3	69.3	95	67.8	0	2	90	0.00	29.781 
13:40	69.3	69.3	69.3	95	67.8	0	1	90	0.00	29.781 
13:45	69.3	69.3	69.3	95	67.8	0	2	90	0.00	29.768 
13:50	69.4	69.4	69.4	95	67.9	1	3	90	0.00	29.768 
13:55	69.4	69.4	69.4	95	67.9	0	2	90	0.01	29.768 
14:00	69.6	69.6	69.6	95	68.1	0	2	90	0.00	29.764 
14:05	69.6	69.6	69.6	95	68.1	0	2	90	0.00	29.764 
14:10	69.6	69.6	69.6	95	68.1	0	1	90	0.00	29.764 
14:15	69.6	69.6	69.6	95	68.1	0	1	90	0.00	29.765 
14:20	69.6	69.6	69.6	95	68.1	0	2	90	0.00	29.765 
14:25	69.6	69.6	69.6	95	68.1	0	1	90	0.00	29.765 
14:30	69.8	69.8	69.8	95	68.3	0	1	90	0.00	29.773 
14:35	69.9	69.9	69.9	95	68.4	0	0	---	0.00	29.773 
14:40	70.1	70.1	70.1	95	68.6	0	3	90	0.00	29.773 
14:45	70.1	70.1	70.1	95	68.6	0	3	90	0.00	29.764 
14:50	70.1	70.1	70.1	95	68.6	0	2	90	0.00	29.764 
14:55	70.1	70.1	70.1	95	68.6	0	2	90	0.00	29.764 
15:00	70.1	70.1	70.1	95	68.6	0	2	90	0.00	29.764 
15:05	70.3	70.3	70.3	95	68.8	1	3	90	0.00	29.764 
15:10	70.8	70.8	70.8	94	69.0	0	4	90	0.00	29.764 
15:15	71.1	71.1	71.1	94	69.3	0	3	90	0.00	29.763 
15:20	71.6	71.6	71.6	94	69.8	0	2	90	0.00	29.763 
15:25	72.1	72.1	72.1	93	70.0	0	2	90	0.00	29.763 
15:30	72.5	72.5	72.5	92	70.0	0	3	90	0.00	29.763 
15:35	72.3	72.3	72.3	92	69.8	0	4	90	0.00	29.763 
15:40	72.7	72.7	72.7	91	69.9	0	0	---	0.00	29.763 
15:45	73.3	73.3	73.3	90	70.2	0	3	90	0.00	29.762 
15:50	73.5	73.5	73.5	88	69.7	0	3	90	0.00	29.762 
15:55	73.5	73.5	73.5	86	69.0	0	4	90	0.00	29.762 
16:00	73.7	73.7	73.7	86	69.2	0	2	90	0.00	29.754 
16:05	74.2	74.2	74.2	86	69.7	0	2	90	0.00	29.754 
16:10	74.6	74.6	74.6	84	69.4	0	2	90	0.00	29.754 
16:15	74.7	74.7	74.7	83	69.2	1	4	90	0.00	29.752 
16:20	75.1	75.1	75.3	83	69.6	1	2	90	0.00	29.752 
16:25	74.9	74.9	74.9	82	69.0	0	2	90	0.00	29.752 
16:30	74.7	74.7	74.7	82	68.8	0	1	90	0.00	29.747 
16:35	74.6	74.6	74.6	82	68.7	0	2	90	0.00	29.747 
16:40	74.4	74.4	74.4	81	68.2	0	2	90	0.00	29.747 
16:45	74.6	74.6	74.6	82	68.7	0	4	90	0.00	29.748 
16:50	74.7	74.7	74.7	82	68.8	0	2	90	0.00	29.748 
16:55	74.9	74.9	74.9	80	68.3	0	2	90	0.00	29.748 
17:00	75.3	75.3	76.1	79	68.3	1	3	90	0.00	29.751 
17:05	75.3	75.3	76.3	77	67.6	1	3	90	0.00	29.751 
17:10	75.3	75.3	76.3	77	67.6	0	2	90	0.00	29.751 
17:15	75.3	75.3	76.2	78	68.0	0	1	90	0.00	29.750 
17:20	75.3	75.3	76.1	79	68.3	0	1	90	0.00	29.750 
17:25	75.1	75.1	75.8	79	68.1	0	1	90	0.00	29.750 
17:30	74.9	74.9	74.9	79	67.9	0	2	90	0.00	29.744 
17:35	74.9	74.9	74.9	79	67.9	1	2	90	0.00	29.744 
17:40	74.9	74.9	74.9	79	67.9	0	2	90	0.00	29.744 
17:45	74.9	74.9	74.9	79	67.9	0	2	90	0.00	29.736 
17:50	75.1	75.1	75.7	80	68.5	0	2	90	0.00	29.736 
17:55	75.1	75.1	75.8	79	68.1	1	2	90	0.00	29.736 
18:00	75.3	75.3	76.1	79	68.3	1	3	90	0.00	29.738 
18:05	75.4	75.4	76.2	79	68.4	2	5	315	0.00	29.738 
18:10	76.0	76.0	77.1	79	69.0	1	4	315	0.00	29.738 
18:15	76.5	76.5	77.9	78	69.1	1	4	315	0.00	29.741 
18:20	77.0	77.0	78.7	77	69.2	0	2	292	0.00	29.741 
18:25	77.2	77.2	79.0	76	69.0	1	3	292	0.00	29.741 
18:30	77.0	77.0	78.7	73	67.7	2	4	315	0.00	29.742 
18:35	77.0	77.0	78.7	74	68.1	1	3	315	0.00	29.742 
18:40	77.2	77.2	79.0	74	68.3	0	3	315	0.00	29.742 
18:45	77.2	77.2	79.0	73	67.9	1	4	315	0.00	29.732 
18:50	77.2	77.2	79.0	73	67.9	2	5	315	0.00	29.732 
18:55	77.2	77.2	79.0	73	67.9	1	4	315	0.00	29.732 
19:00	77.0	77.0	78.7	73	67.7	1	4	315	0.00	29.728 
19:05	76.8	76.8	78.5	73	67.5	0	3	315	0.00	29.728 
19:10	76.8	76.8	78.5	73	67.5	1	3	315	0.00	29.728 
19:15	76.8	76.8	78.4	74	67.9	1	3	315	0.00	29.725 
19:20	76.8	76.8	78.4	74	67.9	1	3	315	0.00	29.725 
19:25	76.5	76.5	78.1	74	67.6	0	2	45	0.00	29.725 
19:30	76.3	76.3	77.8	74	67.4	1	4	315	0.00	29.725 
19:35	76.3	76.3	77.8	73	67.0	1	5	315	0.00	29.725 
19:40	76.1	76.1	77.6	73	66.8	1	4	315	0.00	29.725 
19:45	76.1	76.1	77.6	73	66.8	1	3	315	0.00	29.726 
19:50	76.1	76.1	77.6	73	66.8	1	3	315	0.00	29.726 
19:55	76.0	76.0	77.5	73	66.7	1	3	315	0.00	29.726 
20:00	76.0	76.0	77.4	74	67.1	1	5	270	0.00	29.726 
20:05	75.8	75.8	77.2	74	66.9	1	4	270	0.00	29.726 
20:10	75.6	75.6	77.0	74	66.7	0	2	270	0.00	29.726 
20:15	75.4	75.4	76.6	75	66.9	0	1	270	0.00	29.726 
20:20	75.1	75.1	76.2	76	67.0	0	1	270	0.00	29.726 
20:25	74.9	74.9	74.9	77	67.2	0	1	270	0.00	29.726 
20:30	74.7	74.7	74.7	77	67.0	0	1	270	0.00	29.734 
20:35	74.6	74.6	74.6	78	67.3	0	1	270	0.00	29.734 
20:40	74.2	74.2	74.2	78	66.9	0	0	---	0.00	29.734 
20:45	74.0	74.0	74.0	79	67.1	0	0	---	0.00	29.735 
20:50	73.9	73.9	73.9	80	67.3	0	0	---	0.00	29.735 
20:55	73.5	73.5	73.5	80	66.9	0	0	---	0.00	29.735 
21:00	73.2	73.2	73.2	81	67.0	0	0	---	0.00	29.740 
21:05	72.8	72.8	72.8	81	66.6	0	0	---	0.00	29.740 
21:10	72.5	72.5	72.5	82	66.7	0	0	---	0.00	29.740 
21:15	72.1	72.1	72.1	82	66.3	0	0	---	0.00	29.745 
21:20	72.0	72.0	72.0	83	66.5	0	0	---	0.00	29.745 
21:25	71.6	71.6	71.6	84	66.5	0	0	---	0.00	29.745 
21:30	71.5	71.5	71.5	84	66.4	0	0	---	0.00	29.747 
21:35	71.3	71.3	71.3	85	66.5	0	0	---	0.00	29.747 
21:40	70.9	70.9	70.9	86	66.5	0	0	---	0.00	29.747 
21:45	70.8	70.8	70.8	86	66.4	0	0	---	0.00	29.752 
21:50	70.8	70.8	70.8	86	66.4	0	0	---	0.00	29.752 
21:55	70.6	70.6	70.6	87	66.5	0	0	---	0.00	29.752 
22:00	70.6	70.6	70.6	87	66.5	0	0	---	0.00	29.754 
22:05	70.6	70.6	70.6	88	66.9	0	0	---	0.00	29.754 
22:10	70.6	70.6	70.6	88	66.9	0	0	---	0.00	29.754 
22:15	70.4	70.4	70.4	89	67.0	0	0	---	0.00	29.749 
22:20	70.4	70.4	70.4	89	67.0	0	0	---	0.00	29.749 
22:25	70.3	70.3	70.3	89	66.9	0	0	---	0.00	29.749 
22:30	70.1	70.1	70.1	89	66.7	0	0	---	0.00	29.749 
22:35	70.1	70.1	70.1	89	66.7	0	0	---	0.00	29.749 
22:40	69.9	69.9	69.9	89	66.5	0	0	---	0.00	29.749 
22:45	69.8	69.8	69.8	90	66.7	0	0	---	0.00	29.746 
22:50	69.6	69.6	69.6	90	66.5	0	0	---	0.00	29.746 
22:55	69.6	69.6	69.6	90	66.5	0	0	---	0.00	29.746 
23:00	69.4	69.4	69.4	90	66.3	0	0	---	0.00	29.742 
23:05	69.4	69.4	69.4	91	66.7	0	0	---	0.00	29.742 
23:10	69.3	69.3	69.3	91	66.6	0	0	---	0.00	29.742 
23:15	69.3	69.3	69.3	91	66.6	0	0	---	0.00	29.743 
23:20	69.1	69.1	69.1	91	66.4	0	0	---	0.00	29.743 
23:25	69.1	69.1	69.1	91	66.4	0	0	---	0.00	29.743 
23:30	68.9	68.9	68.9	91	66.2	0	0	---	0.00	29.737 
23:35	68.9	68.9	68.9	92	66.5	0	0	---	0.00	29.737 
23:40	68.8	68.8	68.8	92	66.4	0	0	---	0.00	29.737 
23:45	68.8	68.8	68.8	92	66.4	0	0	---	0.00	29.735 
23:50	68.6	68.6	68.6	92	66.2	0	0	---	0.00	29.735 
23:55	68.4	68.4	68.4	92	66.0	0	0	---	0.00	29.735 

CoCoRaHS
IN-AL-39
A2 Web Hosting
Creative Commons License
GoDaddy
search engine by freefind advanced

loaded 2018-11-17 14:00:08 • last modified 2010-11-18 10:43:29
Privacy PolicyDisclaimer
• wx.awcolley.com is powered by PmWiki v.2002016 •
• all content (unless otherwise noted) © 2018 A W Colley